sensor_id;sensor_type;location;lat;lon;timestamp;P1;durP1;ratioP1;P2;durP2;ratioP2
76065;SDS011;64763;48.928;8.474;2022-10-31T00:00:56;8.35;;;4.28;;
76065;SDS011;64763;48.928;8.474;2022-10-31T00:03:22;9.63;;;4.22;;
76065;SDS011;64763;48.928;8.474;2022-10-31T00:05:48;10.63;;;4.97;;
76065;SDS011;64763;48.928;8.474;2022-10-31T00:08:14;12.65;;;5.28;;
76065;SDS011;64763;48.928;8.474;2022-10-31T00:10:41;7.45;;;4.03;;
76065;SDS011;64763;48.928;8.474;2022-10-31T00:13:07;8.65;;;3.58;;
76065;SDS011;64763;48.928;8.474;2022-10-31T00:15:33;5.70;;;3.40;;
76065;SDS011;64763;48.928;8.474;2022-10-31T00:17:59;7.93;;;3.58;;
76065;SDS011;64763;48.928;8.474;2022-10-31T00:20:25;8.45;;;3.83;;
76065;SDS011;64763;48.928;8.474;2022-10-31T00:22:50;8.02;;;3.70;;
76065;SDS011;64763;48.928;8.474;2022-10-31T00:25:16;11.82;;;4.22;;
76065;SDS011;64763;48.928;8.474;2022-10-31T00:27:41;8.43;;;4.40;;
76065;SDS011;64763;48.928;8.474;2022-10-31T00:30:06;10.10;;;4.10;;
76065;SDS011;64763;48.928;8.474;2022-10-31T00:32:32;7.40;;;3.90;;
76065;SDS011;64763;48.928;8.474;2022-10-31T00:34:57;13.43;;;4.28;;
76065;SDS011;64763;48.928;8.474;2022-10-31T00:37:23;8.98;;;3.90;;
76065;SDS011;64763;48.928;8.474;2022-10-31T00:39:48;8.52;;;4.15;;
76065;SDS011;64763;48.928;8.474;2022-10-31T00:42:14;10.02;;;3.67;;
76065;SDS011;64763;48.928;8.474;2022-10-31T00:44:40;10.27;;;4.07;;
76065;SDS011;64763;48.928;8.474;2022-10-31T00:47:05;6.03;;;3.80;;
76065;SDS011;64763;48.928;8.474;2022-10-31T00:49:30;10.52;;;4.57;;
76065;SDS011;64763;48.928;8.474;2022-10-31T00:51:56;8.85;;;3.88;;
76065;SDS011;64763;48.928;8.474;2022-10-31T00:54:21;11.40;;;4.93;;
76065;SDS011;64763;48.928;8.474;2022-10-31T00:56:46;8.48;;;3.83;;
76065;SDS011;64763;48.928;8.474;2022-10-31T00:59:12;9.88;;;4.95;;
76065;SDS011;64763;48.928;8.474;2022-10-31T01:01:37;8.27;;;4.57;;
76065;SDS011;64763;48.928;8.474;2022-10-31T01:04:02;10.23;;;4.45;;
76065;SDS011;64763;48.928;8.474;2022-10-31T01:06:28;11.27;;;4.65;;
76065;SDS011;64763;48.928;8.474;2022-10-31T01:08:53;9.25;;;4.28;;
76065;SDS011;64763;48.928;8.474;2022-10-31T01:11:20;8.35;;;3.95;;
76065;SDS011;64763;48.928;8.474;2022-10-31T01:13:47;11.05;;;4.38;;
76065;SDS011;64763;48.928;8.474;2022-10-31T01:16:14;15.60;;;5.60;;
76065;SDS011;64763;48.928;8.474;2022-10-31T01:18:40;10.05;;;4.57;;
76065;SDS011;64763;48.928;8.474;2022-10-31T01:21:16;6.65;;;3.80;;
76065;SDS011;64763;48.928;8.474;2022-10-31T01:23:45;8.20;;;3.95;;
76065;SDS011;64763;48.928;8.474;2022-10-31T01:26:11;9.25;;;3.97;;
76065;SDS011;64763;48.928;8.474;2022-10-31T01:28:42;9.20;;;3.50;;
76065;SDS011;64763;48.928;8.474;2022-10-31T01:31:09;8.80;;;3.90;;
76065;SDS011;64763;48.928;8.474;2022-10-31T01:33:35;6.30;;;3.75;;
76065;SDS011;64763;48.928;8.474;2022-10-31T01:36:01;8.80;;;4.05;;
76065;SDS011;64763;48.928;8.474;2022-10-31T01:38:27;10.93;;;3.97;;
76065;SDS011;64763;48.928;8.474;2022-10-31T01:40:52;9.27;;;3.58;;
76065;SDS011;64763;48.928;8.474;2022-10-31T01:43:18;10.40;;;4.47;;
76065;SDS011;64763;48.928;8.474;2022-10-31T01:45:46;6.70;;;3.83;;
76065;SDS011;64763;48.928;8.474;2022-10-31T01:48:16;9.32;;;3.83;;
76065;SDS011;64763;48.928;8.474;2022-10-31T01:50:45;11.60;;;4.05;;
76065;SDS011;64763;48.928;8.474;2022-10-31T01:53:12;8.77;;;3.72;;
76065;SDS011;64763;48.928;8.474;2022-10-31T01:55:39;8.02;;;4.10;;
76065;SDS011;64763;48.928;8.474;2022-10-31T01:58:24;7.65;;;3.58;;
76065;SDS011;64763;48.928;8.474;2022-10-31T02:00:51;7.22;;;3.58;;
76065;SDS011;64763;48.928;8.474;2022-10-31T02:03:22;7.00;;;3.10;;
76065;SDS011;64763;48.928;8.474;2022-10-31T02:05:47;7.53;;;4.03;;
76065;SDS011;64763;48.928;8.474;2022-10-31T02:08:15;8.48;;;3.95;;
76065;SDS011;64763;48.928;8.474;2022-10-31T02:10:43;8.27;;;3.35;;
76065;SDS011;64763;48.928;8.474;2022-10-31T02:13:09;9.15;;;3.45;;
76065;SDS011;64763;48.928;8.474;2022-10-31T02:15:35;9.75;;;3.72;;
76065;SDS011;64763;48.928;8.474;2022-10-31T02:18:01;7.93;;;3.60;;
76065;SDS011;64763;48.928;8.474;2022-10-31T02:20:29;6.18;;;3.22;;
76065;SDS011;64763;48.928;8.474;2022-10-31T02:23:34;6.63;;;3.17;;
76065;SDS011;64763;48.928;8.474;2022-10-31T02:34:34;9.73;;;3.70;;
76065;SDS011;64763;48.928;8.474;2022-10-31T02:37:38;7.05;;;3.60;;
76065;SDS011;64763;48.928;8.474;2022-10-31T02:40:23;9.10;;;3.65;;
76065;SDS011;64763;48.928;8.474;2022-10-31T02:48:18;9.32;;;3.40;;
76065;SDS011;64763;48.928;8.474;2022-10-31T02:50:47;9.52;;;3.42;;
76065;SDS011;64763;48.928;8.474;2022-10-31T02:53:16;7.63;;;4.05;;
76065;SDS011;64763;48.928;8.474;2022-10-31T02:55:44;6.93;;;3.50;;
76065;SDS011;64763;48.928;8.474;2022-10-31T02:58:14;8.85;;;4.22;;
76065;SDS011;64763;48.928;8.474;2022-10-31T03:06:30;9.25;;;3.45;;
76065;SDS011;64763;48.928;8.474;2022-10-31T03:09:03;6.13;;;3.35;;
76065;SDS011;64763;48.928;8.474;2022-10-31T03:11:56;8.40;;;3.38;;
76065;SDS011;64763;48.928;8.474;2022-10-31T03:14:25;6.70;;;3.42;;
76065;SDS011;64763;48.928;8.474;2022-10-31T03:16:57;8.10;;;3.65;;
76065;SDS011;64763;48.928;8.474;2022-10-31T03:19:29;8.23;;;3.33;;
76065;SDS011;64763;48.928;8.474;2022-10-31T03:21:57;7.28;;;3.45;;
76065;SDS011;64763;48.928;8.474;2022-10-31T03:24:28;8.07;;;3.72;;
76065;SDS011;64763;48.928;8.474;2022-10-31T03:26:56;10.27;;;3.70;;
76065;SDS011;64763;48.928;8.474;2022-10-31T03:29:24;10.88;;;3.92;;
76065;SDS011;64763;48.928;8.474;2022-10-31T03:31:52;11.10;;;3.97;;
76065;SDS011;64763;48.928;8.474;2022-10-31T03:34:22;8.50;;;4.65;;
76065;SDS011;64763;48.928;8.474;2022-10-31T03:36:49;7.47;;;3.75;;
76065;SDS011;64763;48.928;8.474;2022-10-31T03:39:18;7.60;;;4.28;;
76065;SDS011;64763;48.928;8.474;2022-10-31T03:41:47;8.57;;;4.30;;
76065;SDS011;64763;48.928;8.474;2022-10-31T03:44:18;9.65;;;3.75;;
76065;SDS011;64763;48.928;8.474;2022-10-31T03:46:44;10.25;;;4.80;;
76065;SDS011;64763;48.928;8.474;2022-10-31T03:49:10;11.55;;;4.47;;
76065;SDS011;64763;48.928;8.474;2022-10-31T03:51:44;13.32;;;4.35;;
76065;SDS011;64763;48.928;8.474;2022-10-31T03:54:22;10.35;;;4.13;;
76065;SDS011;64763;48.928;8.474;2022-10-31T03:57:01;7.50;;;4.18;;
76065;SDS011;64763;48.928;8.474;2022-10-31T03:59:41;8.13;;;4.30;;
76065;SDS011;64763;48.928;8.474;2022-10-31T04:02:16;8.38;;;3.75;;
76065;SDS011;64763;48.928;8.474;2022-10-31T04:04:43;8.85;;;3.63;;
76065;SDS011;64763;48.928;8.474;2022-10-31T04:07:09;9.43;;;4.22;;
76065;SDS011;64763;48.928;8.474;2022-10-31T04:09:36;11.38;;;4.25;;
76065;SDS011;64763;48.928;8.474;2022-10-31T04:12:02;10.13;;;4.07;;
76065;SDS011;64763;48.928;8.474;2022-10-31T04:14:30;7.75;;;3.78;;
76065;SDS011;64763;48.928;8.474;2022-10-31T04:16:57;9.05;;;4.32;;
76065;SDS011;64763;48.928;8.474;2022-10-31T04:19:22;10.27;;;3.90;;
76065;SDS011;64763;48.928;8.474;2022-10-31T04:21:47;7.53;;;3.50;;
76065;SDS011;64763;48.928;8.474;2022-10-31T04:24:13;9.07;;;4.28;;
76065;SDS011;64763;48.928;8.474;2022-10-31T04:26:38;9.32;;;3.80;;
76065;SDS011;64763;48.928;8.474;2022-10-31T04:29:03;8.68;;;3.17;;
76065;SDS011;64763;48.928;8.474;2022-10-31T04:31:29;8.82;;;4.15;;
76065;SDS011;64763;48.928;8.474;2022-10-31T04:33:54;9.10;;;4.13;;
76065;SDS011;64763;48.928;8.474;2022-10-31T04:36:20;8.40;;;4.55;;
76065;SDS011;64763;48.928;8.474;2022-10-31T04:38:45;8.65;;;4.13;;
76065;SDS011;64763;48.928;8.474;2022-10-31T04:41:10;7.88;;;4.20;;
76065;SDS011;64763;48.928;8.474;2022-10-31T04:43:36;8.63;;;4.07;;
76065;SDS011;64763;48.928;8.474;2022-10-31T04:46:01;7.88;;;3.88;;
76065;SDS011;64763;48.928;8.474;2022-10-31T04:48:27;11.05;;;3.90;;
76065;SDS011;64763;48.928;8.474;2022-10-31T04:50:52;8.15;;;4.07;;
76065;SDS011;64763;48.928;8.474;2022-10-31T04:53:17;6.00;;;3.83;;
76065;SDS011;64763;48.928;8.474;2022-10-31T04:55:43;7.38;;;3.88;;
76065;SDS011;64763;48.928;8.474;2022-10-31T04:58:08;6.60;;;3.50;;
76065;SDS011;64763;48.928;8.474;2022-10-31T05:00:33;7.15;;;4.13;;
76065;SDS011;64763;48.928;8.474;2022-10-31T05:02:59;6.05;;;3.33;;
76065;SDS011;64763;48.928;8.474;2022-10-31T05:05:25;6.28;;;3.83;;
76065;SDS011;64763;48.928;8.474;2022-10-31T05:07:52;7.68;;;3.90;;
76065;SDS011;64763;48.928;8.474;2022-10-31T05:10:19;12.38;;;4.80;;
76065;SDS011;64763;48.928;8.474;2022-10-31T05:12:50;7.53;;;3.75;;
76065;SDS011;64763;48.928;8.474;2022-10-31T05:15:16;7.30;;;3.88;;
76065;SDS011;64763;48.928;8.474;2022-10-31T05:17:45;9.60;;;4.30;;
76065;SDS011;64763;48.928;8.474;2022-10-31T05:20:11;10.02;;;4.22;;
76065;SDS011;64763;48.928;8.474;2022-10-31T05:22:37;10.10;;;6.43;;
76065;SDS011;64763;48.928;8.474;2022-10-31T05:25:10;12.90;;;5.40;;
76065;SDS011;64763;48.928;8.474;2022-10-31T05:27:40;12.07;;;5.38;;
76065;SDS011;64763;48.928;8.474;2022-10-31T05:30:06;8.90;;;4.80;;
76065;SDS011;64763;48.928;8.474;2022-10-31T05:32:42;8.93;;;4.15;;
76065;SDS011;64763;48.928;8.474;2022-10-31T05:35:11;8.82;;;4.40;;
76065;SDS011;64763;48.928;8.474;2022-10-31T05:37:37;10.13;;;4.82;;
76065;SDS011;64763;48.928;8.474;2022-10-31T05:40:03;9.15;;;4.65;;
76065;SDS011;64763;48.928;8.474;2022-10-31T05:42:29;11.82;;;4.78;;
76065;SDS011;64763;48.928;8.474;2022-10-31T05:44:54;14.80;;;6.65;;
76065;SDS011;64763;48.928;8.474;2022-10-31T05:47:20;13.45;;;6.53;;
76065;SDS011;64763;48.928;8.474;2022-10-31T05:49:45;10.10;;;4.88;;
76065;SDS011;64763;48.928;8.474;2022-10-31T05:52:11;10.32;;;5.03;;
76065;SDS011;64763;48.928;8.474;2022-10-31T05:54:36;9.32;;;4.85;;
76065;SDS011;64763;48.928;8.474;2022-10-31T05:57:02;11.55;;;4.95;;
76065;SDS011;64763;48.928;8.474;2022-10-31T05:59:27;8.18;;;4.30;;
76065;SDS011;64763;48.928;8.474;2022-10-31T06:01:52;11.93;;;4.72;;
76065;SDS011;64763;48.928;8.474;2022-10-31T06:04:18;15.35;;;6.82;;
76065;SDS011;64763;48.928;8.474;2022-10-31T06:06:43;39.45;;;18.42;;
76065;SDS011;64763;48.928;8.474;2022-10-31T06:09:08;26.67;;;12.90;;
76065;SDS011;64763;48.928;8.474;2022-10-31T06:11:34;14.70;;;8.98;;
76065;SDS011;64763;48.928;8.474;2022-10-31T06:13:59;19.25;;;8.82;;
76065;SDS011;64763;48.928;8.474;2022-10-31T06:16:24;16.70;;;8.38;;
76065;SDS011;64763;48.928;8.474;2022-10-31T06:18:50;17.55;;;8.45;;
76065;SDS011;64763;48.928;8.474;2022-10-31T06:21:15;13.95;;;7.05;;
76065;SDS011;64763;48.928;8.474;2022-10-31T06:23:40;11.00;;;6.13;;
76065;SDS011;64763;48.928;8.474;2022-10-31T06:26:06;13.95;;;6.10;;
76065;SDS011;64763;48.928;8.474;2022-10-31T06:28:31;15.95;;;6.72;;
76065;SDS011;64763;48.928;8.474;2022-10-31T06:30:57;11.95;;;6.22;;
76065;SDS011;64763;48.928;8.474;2022-10-31T06:33:22;12.70;;;5.38;;
76065;SDS011;64763;48.928;8.474;2022-10-31T06:35:47;15.75;;;6.18;;
76065;SDS011;64763;48.928;8.474;2022-10-31T06:38:13;9.82;;;5.05;;
76065;SDS011;64763;48.928;8.474;2022-10-31T06:40:39;9.48;;;5.07;;
76065;SDS011;64763;48.928;8.474;2022-10-31T06:43:04;12.50;;;5.35;;
76065;SDS011;64763;48.928;8.474;2022-10-31T06:45:29;10.18;;;5.18;;
76065;SDS011;64763;48.928;8.474;2022-10-31T06:47:55;15.13;;;5.43;;
76065;SDS011;64763;48.928;8.474;2022-10-31T06:50:21;7.93;;;4.90;;
76065;SDS011;64763;48.928;8.474;2022-10-31T06:52:54;15.35;;;5.65;;
76065;SDS011;64763;48.928;8.474;2022-10-31T06:55:20;10.13;;;5.07;;
76065;SDS011;64763;48.928;8.474;2022-10-31T06:57:54;16.20;;;5.90;;
76065;SDS011;64763;48.928;8.474;2022-10-31T07:00:20;11.00;;;5.47;;
76065;SDS011;64763;48.928;8.474;2022-10-31T07:02:59;9.63;;;5.45;;
76065;SDS011;64763;48.928;8.474;2022-10-31T07:05:26;8.70;;;6.05;;
76065;SDS011;64763;48.928;8.474;2022-10-31T07:07:52;11.38;;;5.28;;
76065;SDS011;64763;48.928;8.474;2022-10-31T07:10:22;11.32;;;5.25;;
76065;SDS011;64763;48.928;8.474;2022-10-31T07:12:53;12.75;;;6.45;;
76065;SDS011;64763;48.928;8.474;2022-10-31T07:15:19;8.13;;;4.85;;
76065;SDS011;64763;48.928;8.474;2022-10-31T07:17:44;10.93;;;5.00;;
76065;SDS011;64763;48.928;8.474;2022-10-31T07:20:09;13.90;;;5.00;;
76065;SDS011;64763;48.928;8.474;2022-10-31T07:22:35;9.63;;;5.03;;
76065;SDS011;64763;48.928;8.474;2022-10-31T07:25:01;13.02;;;4.70;;
76065;SDS011;64763;48.928;8.474;2022-10-31T07:27:26;13.07;;;4.63;;
76065;SDS011;64763;48.928;8.474;2022-10-31T07:29:52;12.63;;;6.20;;
76065;SDS011;64763;48.928;8.474;2022-10-31T07:32:17;8.88;;;4.22;;
76065;SDS011;64763;48.928;8.474;2022-10-31T07:34:43;10.30;;;4.10;;
76065;SDS011;64763;48.928;8.474;2022-10-31T07:37:08;10.05;;;4.78;;
76065;SDS011;64763;48.928;8.474;2022-10-31T07:39:33;9.55;;;3.92;;
76065;SDS011;64763;48.928;8.474;2022-10-31T07:41:58;11.50;;;3.70;;
76065;SDS011;64763;48.928;8.474;2022-10-31T07:44:24;10.05;;;3.67;;
76065;SDS011;64763;48.928;8.474;2022-10-31T07:46:49;7.85;;;3.42;;
76065;SDS011;64763;48.928;8.474;2022-10-31T07:49:15;7.70;;;3.85;;
76065;SDS011;64763;48.928;8.474;2022-10-31T07:51:40;7.75;;;3.28;;
76065;SDS011;64763;48.928;8.474;2022-10-31T07:54:05;10.05;;;4.18;;
76065;SDS011;64763;48.928;8.474;2022-10-31T07:56:31;7.80;;;3.60;;
76065;SDS011;64763;48.928;8.474;2022-10-31T07:58:56;6.85;;;3.85;;
76065;SDS011;64763;48.928;8.474;2022-10-31T08:01:21;8.80;;;4.43;;
76065;SDS011;64763;48.928;8.474;2022-10-31T08:03:47;9.02;;;3.75;;
76065;SDS011;64763;48.928;8.474;2022-10-31T08:06:12;6.05;;;3.20;;
76065;SDS011;64763;48.928;8.474;2022-10-31T08:08:37;7.82;;;3.83;;
76065;SDS011;64763;48.928;8.474;2022-10-31T08:11:03;7.60;;;3.97;;
76065;SDS011;64763;48.928;8.474;2022-10-31T08:13:28;8.68;;;3.92;;
76065;SDS011;64763;48.928;8.474;2022-10-31T08:15:53;6.38;;;3.22;;
76065;SDS011;64763;48.928;8.474;2022-10-31T08:18:20;13.07;;;3.50;;
76065;SDS011;64763;48.928;8.474;2022-10-31T08:20:48;6.55;;;2.85;;
76065;SDS011;64763;48.928;8.474;2022-10-31T08:23:14;7.80;;;2.95;;
76065;SDS011;64763;48.928;8.474;2022-10-31T08:25:39;8.00;;;2.72;;
76065;SDS011;64763;48.928;8.474;2022-10-31T08:28:05;6.68;;;3.17;;
76065;SDS011;64763;48.928;8.474;2022-10-31T08:30:32;9.48;;;3.38;;
76065;SDS011;64763;48.928;8.474;2022-10-31T08:32:59;6.15;;;3.13;;
76065;SDS011;64763;48.928;8.474;2022-10-31T08:35:38;7.57;;;2.97;;
76065;SDS011;64763;48.928;8.474;2022-10-31T08:38:04;7.72;;;2.72;;
76065;SDS011;64763;48.928;8.474;2022-10-31T08:40:30;8.75;;;3.22;;
76065;SDS011;64763;48.928;8.474;2022-10-31T08:43:00;8.23;;;2.95;;
76065;SDS011;64763;48.928;8.474;2022-10-31T08:45:26;9.50;;;2.83;;
76065;SDS011;64763;48.928;8.474;2022-10-31T08:47:56;9.23;;;3.30;;
76065;SDS011;64763;48.928;8.474;2022-10-31T08:50:22;5.55;;;2.75;;
76065;SDS011;64763;48.928;8.474;2022-10-31T08:52:47;6.07;;;3.15;;
76065;SDS011;64763;48.928;8.474;2022-10-31T08:55:12;7.93;;;3.20;;
76065;SDS011;64763;48.928;8.474;2022-10-31T08:57:38;9.80;;;3.00;;
76065;SDS011;64763;48.928;8.474;2022-10-31T09:00:03;6.97;;;2.70;;
76065;SDS011;64763;48.928;8.474;2022-10-31T09:02:30;6.32;;;3.20;;
76065;SDS011;64763;48.928;8.474;2022-10-31T09:04:55;8.65;;;3.65;;
76065;SDS011;64763;48.928;8.474;2022-10-31T09:07:20;5.72;;;2.90;;
76065;SDS011;64763;48.928;8.474;2022-10-31T09:09:46;8.15;;;3.13;;
76065;SDS011;64763;48.928;8.474;2022-10-31T09:12:11;8.20;;;3.08;;
76065;SDS011;64763;48.928;8.474;2022-10-31T09:14:36;9.02;;;3.65;;
76065;SDS011;64763;48.928;8.474;2022-10-31T09:17:02;7.57;;;3.97;;
76065;SDS011;64763;48.928;8.474;2022-10-31T09:19:27;8.52;;;3.90;;
76065;SDS011;64763;48.928;8.474;2022-10-31T09:21:53;6.93;;;3.58;;
76065;SDS011;64763;48.928;8.474;2022-10-31T09:24:19;9.07;;;4.50;;
76065;SDS011;64763;48.928;8.474;2022-10-31T09:26:44;12.38;;;3.65;;
76065;SDS011;64763;48.928;8.474;2022-10-31T09:29:09;10.57;;;3.33;;
76065;SDS011;64763;48.928;8.474;2022-10-31T09:31:35;8.65;;;3.53;;
76065;SDS011;64763;48.928;8.474;2022-10-31T09:34:00;7.63;;;3.30;;
76065;SDS011;64763;48.928;8.474;2022-10-31T09:36:26;10.20;;;3.55;;
76065;SDS011;64763;48.928;8.474;2022-10-31T09:38:51;7.32;;;3.70;;
76065;SDS011;64763;48.928;8.474;2022-10-31T09:42:02;8.23;;;3.80;;
76065;SDS011;64763;48.928;8.474;2022-10-31T09:44:11;7.40;;;3.35;;
76065;SDS011;64763;48.928;8.474;2022-10-31T09:52:05;7.38;;;3.67;;
76065;SDS011;64763;48.928;8.474;2022-10-31T09:57:27;10.30;;;3.97;;
76065;SDS011;64763;48.928;8.474;2022-10-31T09:59:55;7.20;;;4.03;;
76065;SDS011;64763;48.928;8.474;2022-10-31T10:02:29;11.30;;;4.40;;
76065;SDS011;64763;48.928;8.474;2022-10-31T10:05:01;6.38;;;4.22;;
76065;SDS011;64763;48.928;8.474;2022-10-31T10:08:00;11.18;;;4.28;;
76065;SDS011;64763;48.928;8.474;2022-10-31T10:16:07;12.25;;;4.15;;
76065;SDS011;64763;48.928;8.474;2022-10-31T10:21:50;8.35;;;4.63;;
76065;SDS011;64763;48.928;8.474;2022-10-31T10:27:01;9.40;;;3.90;;
76065;SDS011;64763;48.928;8.474;2022-10-31T10:29:58;9.93;;;4.00;;
76065;SDS011;64763;48.928;8.474;2022-10-31T10:32:28;8.73;;;4.45;;
76065;SDS011;64763;48.928;8.474;2022-10-31T10:35:41;10.40;;;5.03;;
76065;SDS011;64763;48.928;8.474;2022-10-31T10:37:46;10.90;;;5.05;;
76065;SDS011;64763;48.928;8.474;2022-10-31T10:42:45;10.48;;;3.75;;
76065;SDS011;64763;48.928;8.474;2022-10-31T10:45:37;10.77;;;4.00;;
76065;SDS011;64763;48.928;8.474;2022-10-31T10:48:43;9.20;;;3.85;;
76065;SDS011;64763;48.928;8.474;2022-10-31T10:51:23;10.20;;;4.00;;
76065;SDS011;64763;48.928;8.474;2022-10-31T10:54:13;7.25;;;3.58;;
76065;SDS011;64763;48.928;8.474;2022-10-31T10:57:00;10.73;;;3.65;;
76065;SDS011;64763;48.928;8.474;2022-10-31T10:59:27;7.50;;;3.40;;
76065;SDS011;64763;48.928;8.474;2022-10-31T11:01:54;11.63;;;3.30;;
76065;SDS011;64763;48.928;8.474;2022-10-31T11:07:23;8.95;;;4.47;;
76065;SDS011;64763;48.928;8.474;2022-10-31T11:09:42;8.90;;;3.85;;
76065;SDS011;64763;48.928;8.474;2022-10-31T11:14:46;13.93;;;3.75;;
76065;SDS011;64763;48.928;8.474;2022-10-31T11:17:26;10.98;;;3.72;;
76065;SDS011;64763;48.928;8.474;2022-10-31T11:20:01;7.30;;;4.10;;
76065;SDS011;64763;48.928;8.474;2022-10-31T11:22:29;8.70;;;4.15;;
76065;SDS011;64763;48.928;8.474;2022-10-31T11:24:54;6.15;;;3.60;;
76065;SDS011;64763;48.928;8.474;2022-10-31T11:27:20;6.57;;;3.47;;
76065;SDS011;64763;48.928;8.474;2022-10-31T11:29:47;7.95;;;3.40;;
76065;SDS011;64763;48.928;8.474;2022-10-31T11:32:22;10.25;;;4.35;;
76065;SDS011;64763;48.928;8.474;2022-10-31T11:34:53;9.52;;;3.75;;
76065;SDS011;64763;48.928;8.474;2022-10-31T11:37:21;9.25;;;4.05;;
76065;SDS011;64763;48.928;8.474;2022-10-31T11:39:52;10.23;;;3.42;;
76065;SDS011;64763;48.928;8.474;2022-10-31T11:42:23;9.48;;;3.55;;
76065;SDS011;64763;48.928;8.474;2022-10-31T11:44:51;9.10;;;3.85;;
76065;SDS011;64763;48.928;8.474;2022-10-31T11:47:17;8.98;;;4.13;;
76065;SDS011;64763;48.928;8.474;2022-10-31T11:49:43;8.88;;;4.38;;
76065;SDS011;64763;48.928;8.474;2022-10-31T11:52:15;9.75;;;4.05;;
76065;SDS011;64763;48.928;8.474;2022-10-31T11:54:42;7.82;;;3.80;;
76065;SDS011;64763;48.928;8.474;2022-10-31T11:57:42;14.07;;;4.78;;
76065;SDS011;64763;48.928;8.474;2022-10-31T12:00:23;7.65;;;3.95;;
76065;SDS011;64763;48.928;8.474;2022-10-31T12:03:12;8.82;;;3.72;;
76065;SDS011;64763;48.928;8.474;2022-10-31T12:05:41;7.75;;;3.83;;
76065;SDS011;64763;48.928;8.474;2022-10-31T12:08:11;10.82;;;4.28;;
76065;SDS011;64763;48.928;8.474;2022-10-31T12:10:40;8.77;;;3.95;;
76065;SDS011;64763;48.928;8.474;2022-10-31T12:16:00;14.52;;;4.25;;
76065;SDS011;64763;48.928;8.474;2022-10-31T12:18:39;10.55;;;4.20;;
76065;SDS011;64763;48.928;8.474;2022-10-31T12:21:33;9.98;;;4.50;;
76065;SDS011;64763;48.928;8.474;2022-10-31T12:34:49;7.75;;;4.90;;
76065;SDS011;64763;48.928;8.474;2022-10-31T12:40:22;9.38;;;4.00;;
76065;SDS011;64763;48.928;8.474;2022-10-31T12:48:25;10.15;;;4.43;;
76065;SDS011;64763;48.928;8.474;2022-10-31T12:59:10;12.48;;;6.00;;
76065;SDS011;64763;48.928;8.474;2022-10-31T13:02:02;10.38;;;5.38;;
76065;SDS011;64763;48.928;8.474;2022-10-31T13:04:52;13.65;;;5.40;;
76065;SDS011;64763;48.928;8.474;2022-10-31T13:07:25;9.57;;;4.28;;
76065;SDS011;64763;48.928;8.474;2022-10-31T13:12:37;11.75;;;4.70;;
76065;SDS011;64763;48.928;8.474;2022-10-31T13:15:17;8.90;;;4.80;;
76065;SDS011;64763;48.928;8.474;2022-10-31T13:17:51;12.55;;;4.72;;
76065;SDS011;64763;48.928;8.474;2022-10-31T13:20:25;8.02;;;5.13;;
76065;SDS011;64763;48.928;8.474;2022-10-31T13:25:44;11.40;;;4.70;;
76065;SDS011;64763;48.928;8.474;2022-10-31T13:28:23;13.00;;;4.75;;
76065;SDS011;64763;48.928;8.474;2022-10-31T13:30:49;12.88;;;6.05;;
76065;SDS011;64763;48.928;8.474;2022-10-31T13:33:16;13.60;;;5.63;;
76065;SDS011;64763;48.928;8.474;2022-10-31T13:36:14;9.25;;;4.97;;
76065;SDS011;64763;48.928;8.474;2022-10-31T13:43:55;8.23;;;4.50;;
76065;SDS011;64763;48.928;8.474;2022-10-31T13:48:56;12.80;;;6.03;;
76065;SDS011;64763;48.928;8.474;2022-10-31T13:51:31;12.98;;;5.22;;
76065;SDS011;64763;48.928;8.474;2022-10-31T13:56:43;8.82;;;4.82;;
76065;SDS011;64763;48.928;8.474;2022-10-31T13:59:18;9.65;;;5.03;;
76065;SDS011;64763;48.928;8.474;2022-10-31T14:09:32;8.75;;;4.88;;
76065;SDS011;64763;48.928;8.474;2022-10-31T14:12:05;10.50;;;4.95;;
76065;SDS011;64763;48.928;8.474;2022-10-31T14:14:40;11.90;;;5.00;;
76065;SDS011;64763;48.928;8.474;2022-10-31T14:17:14;12.30;;;5.40;;
76065;SDS011;64763;48.928;8.474;2022-10-31T14:19:42;10.63;;;4.85;;
76065;SDS011;64763;48.928;8.474;2022-10-31T14:22:20;11.73;;;5.38;;
76065;SDS011;64763;48.928;8.474;2022-10-31T14:24:46;10.07;;;5.07;;
76065;SDS011;64763;48.928;8.474;2022-10-31T14:29:49;9.23;;;5.40;;
76065;SDS011;64763;48.928;8.474;2022-10-31T14:37:37;14.13;;;5.05;;
76065;SDS011;64763;48.928;8.474;2022-10-31T14:48:17;10.77;;;5.18;;
76065;SDS011;64763;48.928;8.474;2022-10-31T14:50:59;8.30;;;5.15;;
76065;SDS011;64763;48.928;8.474;2022-10-31T14:53:27;12.57;;;5.22;;
76065;SDS011;64763;48.928;8.474;2022-10-31T14:55:56;9.90;;;5.32;;
76065;SDS011;64763;48.928;8.474;2022-10-31T14:58:23;11.32;;;4.93;;
76065;SDS011;64763;48.928;8.474;2022-10-31T15:00:54;11.40;;;5.22;;
76065;SDS011;64763;48.928;8.474;2022-10-31T15:06:00;10.05;;;4.95;;
76065;SDS011;64763;48.928;8.474;2022-10-31T15:11:23;10.57;;;5.68;;
76065;SDS011;64763;48.928;8.474;2022-10-31T15:13:53;11.45;;;5.85;;
76065;SDS011;64763;48.928;8.474;2022-10-31T15:18:57;11.35;;;5.68;;
76065;SDS011;64763;48.928;8.474;2022-10-31T15:21:27;12.52;;;6.47;;
76065;SDS011;64763;48.928;8.474;2022-10-31T15:23:54;14.65;;;5.60;;
76065;SDS011;64763;48.928;8.474;2022-10-31T15:26:24;14.07;;;6.60;;
76065;SDS011;64763;48.928;8.474;2022-10-31T15:29:03;10.65;;;5.53;;
76065;SDS011;64763;48.928;8.474;2022-10-31T15:31:30;12.90;;;5.60;;
76065;SDS011;64763;48.928;8.474;2022-10-31T15:34:00;12.55;;;5.97;;
76065;SDS011;64763;48.928;8.474;2022-10-31T15:36:29;14.57;;;6.47;;
76065;SDS011;64763;48.928;8.474;2022-10-31T15:38:57;12.43;;;5.85;;
76065;SDS011;64763;48.928;8.474;2022-10-31T15:47:06;14.98;;;5.95;;
76065;SDS011;64763;48.928;8.474;2022-10-31T15:49:42;12.88;;;7.70;;
76065;SDS011;64763;48.928;8.474;2022-10-31T15:52:25;8.85;;;6.28;;
76065;SDS011;64763;48.928;8.474;2022-10-31T15:54:52;12.82;;;6.28;;
76065;SDS011;64763;48.928;8.474;2022-10-31T15:57:20;13.63;;;5.88;;
76065;SDS011;64763;48.928;8.474;2022-10-31T15:59:47;14.32;;;7.25;;
76065;SDS011;64763;48.928;8.474;2022-10-31T16:02:13;15.40;;;7.03;;
76065;SDS011;64763;48.928;8.474;2022-10-31T16:04:50;14.18;;;5.70;;
76065;SDS011;64763;48.928;8.474;2022-10-31T16:07:18;15.02;;;7.07;;
76065;SDS011;64763;48.928;8.474;2022-10-31T16:09:49;12.63;;;7.15;;
76065;SDS011;64763;48.928;8.474;2022-10-31T16:12:16;14.52;;;6.78;;
76065;SDS011;64763;48.928;8.474;2022-10-31T16:14:41;10.45;;;5.95;;
76065;SDS011;64763;48.928;8.474;2022-10-31T16:17:10;13.95;;;6.35;;
76065;SDS011;64763;48.928;8.474;2022-10-31T16:19:59;14.23;;;6.93;;
76065;SDS011;64763;48.928;8.474;2022-10-31T16:22:27;9.43;;;5.75;;
76065;SDS011;64763;48.928;8.474;2022-10-31T16:24:59;13.02;;;6.00;;
76065;SDS011;64763;48.928;8.474;2022-10-31T16:27:28;9.55;;;5.60;;
76065;SDS011;64763;48.928;8.474;2022-10-31T16:29:56;12.90;;;5.40;;
76065;SDS011;64763;48.928;8.474;2022-10-31T16:35:01;11.30;;;5.57;;
76065;SDS011;64763;48.928;8.474;2022-10-31T16:37:27;11.73;;;6.43;;
76065;SDS011;64763;48.928;8.474;2022-10-31T16:39:52;11.63;;;5.60;;
76065;SDS011;64763;48.928;8.474;2022-10-31T16:42:17;24.20;;;13.63;;
76065;SDS011;64763;48.928;8.474;2022-10-31T16:44:43;20.60;;;10.13;;
76065;SDS011;64763;48.928;8.474;2022-10-31T16:47:11;15.57;;;9.85;;
76065;SDS011;64763;48.928;8.474;2022-10-31T16:49:39;21.33;;;13.50;;
76065;SDS011;64763;48.928;8.474;2022-10-31T16:52:04;12.13;;;6.75;;
76065;SDS011;64763;48.928;8.474;2022-10-31T16:54:30;11.75;;;6.25;;
76065;SDS011;64763;48.928;8.474;2022-10-31T16:56:55;12.95;;;7.15;;
76065;SDS011;64763;48.928;8.474;2022-10-31T16:59:22;17.65;;;8.00;;
76065;SDS011;64763;48.928;8.474;2022-10-31T17:01:48;14.40;;;8.15;;
76065;SDS011;64763;48.928;8.474;2022-10-31T17:04:14;15.55;;;8.90;;
76065;SDS011;64763;48.928;8.474;2022-10-31T17:06:40;17.05;;;9.52;;